createdAt,value
2018-05-29T00:00:21.075Z,64.95
2018-05-29T00:01:21.084Z,64.86
2018-05-29T00:02:20.823Z,65.24
2018-05-29T00:03:21.093Z,65.34
2018-05-29T00:04:20.808Z,65.24
2018-05-29T00:05:20.812Z,65.24
2018-05-29T00:06:20.805Z,65.34
2018-05-29T00:07:20.820Z,65.72
2018-05-29T00:08:21.077Z,65.82
2018-05-29T00:11:21.073Z,65.3
2018-05-29T00:12:21.061Z,65.72
2018-05-29T00:13:21.059Z,65.3
2018-05-29T00:14:21.073Z,65.5
2018-05-29T00:15:21.047Z,65.69
2018-05-29T00:16:21.052Z,65.5
2018-05-29T00:17:21.078Z,66.56
2018-05-29T00:18:21.061Z,66.08
2018-05-29T00:19:20.803Z,66.17
2018-05-29T00:20:21.296Z,65.88
2018-05-29T00:21:21.041Z,66.56
2018-05-29T00:22:21.036Z,66.46
2018-05-29T00:23:21.055Z,66.66
2018-05-29T00:24:20.785Z,66.17
2018-05-29T00:25:21.033Z,66.36
2018-05-29T00:26:21.049Z,66.56
2018-05-29T00:27:21.029Z,66.62
2018-05-29T00:28:20.789Z,66.62
2018-05-29T00:29:21.028Z,66.94
2018-05-29T00:30:21.043Z,66.82
2018-05-29T00:31:21.027Z,67.4
2018-05-29T00:32:21.026Z,67.49
2018-05-29T00:33:21.018Z,66.91
2018-05-29T00:34:21.041Z,67.58
2018-05-29T00:35:21.036Z,67.2
2018-05-29T00:36:21.019Z,67.1
2018-05-29T00:37:21.012Z,67
2018-05-29T00:38:21.046Z,67.97
2018-05-29T00:39:21.010Z,67.68
2018-05-29T00:40:21.021Z,67.78
2018-05-29T00:41:21.007Z,67.78
2018-05-29T00:42:21.023Z,67.68
2018-05-29T00:43:21.005Z,67.49
2018-05-29T00:44:21.022Z,67.49
2018-05-29T00:45:21.005Z,67.49
2018-05-29T00:46:20.759Z,67.68
2018-05-29T00:47:21.000Z,67.4
2018-05-29T00:48:21.001Z,67.78
2018-05-29T00:49:20.741Z,67.78
2018-05-29T00:50:21.012Z,68.07
2018-05-29T00:51:21.010Z,68.35
2018-05-29T00:52:20.998Z,68.16
2018-05-29T00:53:20.987Z,68.16
2018-05-29T00:54:20.984Z,68.16
2018-05-29T00:55:21.003Z,68.45
2018-05-29T00:56:20.986Z,68.26
2018-05-29T00:57:21.005Z,68.74
2018-05-29T00:58:20.990Z,68.55
2018-05-29T00:59:20.996Z,67.94
2018-05-29T01:00:20.975Z,68.61
2018-05-29T01:01:20.991Z,68.23
2018-05-29T01:02:20.718Z,68.13
2018-05-29T01:03:20.993Z,68.52
2018-05-29T01:04:20.973Z,68.9
2018-05-29T01:05:20.969Z,68.52
2018-05-29T01:06:20.730Z,68.71
2018-05-29T01:07:20.989Z,68.9
2018-05-29T01:08:20.966Z,68.9
2018-05-29T01:09:20.964Z,68.8
2018-05-29T01:10:20.957Z,68.9
2018-05-29T01:11:20.974Z,68.99
2018-05-29T01:12:20.957Z,69.38
2018-05-29T01:13:20.981Z,69.48
2018-05-29T01:14:20.950Z,69.29
2018-05-29T01:15:20.971Z,69.38
2018-05-29T01:16:20.949Z,69.19
2018-05-29T01:17:20.968Z,69.29
2018-05-29T01:18:20.948Z,69.96
2018-05-29T01:19:20.968Z,69.38
2018-05-29T01:20:20.954Z,69.67
2018-05-29T01:21:20.960Z,69.57
2018-05-29T01:22:20.936Z,69.48
2018-05-29T01:23:20.933Z,69.77
2018-05-29T01:24:20.689Z,69.67
2018-05-29T01:25:20.967Z,69.67
2018-05-29T01:26:20.947Z,70.12
2018-05-29T01:27:20.925Z,69.83
2018-05-29T01:28:20.949Z,69.83
2018-05-29T01:29:20.943Z,69.83
2018-05-29T01:30:20.667Z,70.6
2018-05-29T01:31:20.937Z,70.31
2018-05-29T01:32:20.918Z,70.5
2018-05-29T01:33:20.935Z,70.7
2018-05-29T01:34:20.910Z,70.98
2018-05-29T01:35:20.932Z,70.7
2018-05-29T01:36:20.924Z,71.37
2018-05-29T01:37:20.942Z,71.37
2018-05-29T01:38:20.903Z,71.18
2018-05-29T01:39:20.651Z,71.37
2018-05-29T01:40:20.913Z,71.18
2018-05-29T01:41:20.662Z,71.66
2018-05-29T01:42:20.915Z,71.56
2018-05-29T01:43:20.897Z,71.37
2018-05-29T01:44:20.909Z,71.76
2018-05-29T01:45:20.893Z,72.14
2018-05-29T01:46:20.649Z,71.76
2018-05-29T01:47:20.886Z,72.05
2018-05-29T01:48:20.902Z,71.85
2018-05-29T01:49:20.881Z,72.14
2018-05-29T01:50:20.901Z,71.85
2018-05-29T01:51:20.877Z,72.24
2018-05-29T01:52:20.880Z,72.39
2018-05-29T01:53:20.877Z,72.43
2018-05-29T01:54:20.889Z,72.3
2018-05-29T01:55:20.867Z,72.3
2018-05-29T01:56:20.622Z,72.01
2018-05-29T01:57:20.886Z,72.01
2018-05-29T01:58:20.882Z,72.97
2018-05-29T01:59:20.872Z,72.88
2018-05-29T02:00:20.875Z,72.78
2018-05-29T02:01:20.856Z,73.36
2018-05-29T02:02:20.873Z,73.55
2018-05-29T02:03:20.849Z,73.55
2018-05-29T02:04:20.986Z,73.46
2018-05-29T02:05:20.848Z,73.16
2018-05-29T02:06:20.862Z,73.65
2018-05-29T02:07:20.843Z,73.74
2018-05-29T02:08:20.590Z,73.55
2018-05-29T02:09:20.583Z,73.36
2018-05-29T02:10:20.855Z,73.94
2018-05-29T02:11:20.596Z,73.74
2018-05-29T02:12:20.834Z,73.94
2018-05-29T02:13:20.828Z,73.74
2018-05-29T02:14:20.825Z,73.99
2018-05-29T02:15:20.841Z,74.71
2018-05-29T02:16:20.824Z,74.67
2018-05-29T02:17:20.837Z,74.67
2018-05-29T02:18:20.820Z,74.9
2018-05-29T02:19:20.836Z,74.57
2018-05-29T02:20:20.814Z,74.76
2018-05-29T02:21:20.810Z,75.05
2018-05-29T02:22:20.826Z,74.96
2018-05-29T02:23:20.802Z,74.67
2018-05-29T02:24:20.805Z,75.15
2018-05-29T02:25:20.801Z,75.15
2018-05-29T02:26:20.815Z,75.44
2018-05-29T02:27:20.815Z,76.01
2018-05-29T02:28:20.797Z,75.63
2018-05-29T02:29:20.787Z,75.73
2018-05-29T02:30:20.786Z,75.44
2018-05-29T02:31:20.545Z,75.44
2018-05-29T02:32:20.794Z,75.92
2018-05-29T02:33:20.799Z,76.01
2018-05-29T02:34:20.781Z,75.92
2018-05-29T02:35:20.795Z,76.4
2018-05-29T02:36:20.790Z,76.5
2018-05-29T02:37:20.788Z,76.69
2018-05-29T02:38:20.767Z,76.5
2018-05-29T02:39:20.789Z,76.88
2018-05-29T02:40:20.779Z,76.59
2018-05-29T02:41:20.781Z,76.59
2018-05-29T02:42:20.757Z,77.08
2018-05-29T02:43:20.755Z,77.08
2018-05-29T02:44:20.823Z,77.26
2018-05-29T02:45:20.772Z,77.08
2018-05-29T02:46:20.749Z,77.17
2018-05-29T02:47:20.767Z,77.04
2018-05-29T02:48:20.746Z,76.78
2018-05-29T02:49:20.758Z,77.36
2018-05-29T02:50:20.736Z,77.61
2018-05-29T02:51:20.756Z,77.65
2018-05-29T02:52:20.731Z,77.42
2018-05-29T02:53:20.749Z,77.9
2018-05-29T02:54:20.724Z,77.9
2018-05-29T02:55:20.741Z,77.94
2018-05-29T02:56:20.993Z,77.42
2018-05-29T02:57:20.739Z,77.42
2018-05-29T02:58:20.715Z,77.75
2018-05-29T02:59:20.711Z,77.65
2018-05-29T03:00:20.724Z,77.65
2018-05-29T03:01:20.726Z,77.75
2018-05-29T03:02:20.740Z,77.56
2018-05-29T03:03:20.700Z,78.19
2018-05-29T03:04:20.713Z,78.13
2018-05-29T03:05:20.697Z,78.13
2018-05-29T03:06:20.712Z,78.19
2018-05-29T03:07:20.695Z,77.81
2018-05-29T03:08:20.707Z,77.9
2018-05-29T03:09:20.684Z,78.09
2018-05-29T03:10:20.701Z,78.58
2018-05-29T03:11:20.679Z,78.48
2018-05-29T03:12:20.692Z,78.09
2018-05-29T03:13:20.696Z,78.48
2018-05-29T03:14:20.671Z,78.48
2018-05-29T03:15:20.669Z,78.19
2018-05-29T03:16:20.683Z,77.9
2018-05-29T03:17:20.688Z,78.09
2018-05-29T03:18:20.680Z,78.38
2018-05-29T03:19:20.659Z,78.09
2018-05-29T03:20:20.690Z,78.28
2018-05-29T03:21:20.654Z,78.67
2018-05-29T03:22:20.674Z,78.23
2018-05-29T03:23:20.394Z,78.33
2018-05-29T03:24:20.667Z,78.23
2018-05-29T03:25:20.643Z,78.13
2018-05-29T03:26:20.661Z,78.23
2018-05-29T03:27:20.887Z,78.19
2018-05-29T03:28:20.642Z,78.03
2018-05-29T03:29:20.632Z,78.23
2018-05-29T03:30:20.651Z,78.33
2018-05-29T03:31:20.646Z,78.13
2018-05-29T03:32:20.628Z,78.03
2018-05-29T03:33:20.628Z,77.65
2018-05-29T03:34:20.621Z,77.56
2018-05-29T03:35:20.637Z,77.01
2018-05-29T03:36:20.622Z,76.63
2018-05-29T03:37:20.359Z,76.25
2018-05-29T03:38:20.630Z,76.18
2018-05-29T03:39:20.606Z,75.61
2018-05-29T03:40:20.367Z,75.23
2018-05-29T03:41:20.350Z,74.74
2018-05-29T03:42:20.634Z,74.2
2018-05-29T03:43:20.605Z,73.62
2018-05-29T03:44:20.604Z,73.14
2018-05-29T03:45:20.595Z,72.21
2018-05-29T03:46:20.613Z,71.92
2018-05-29T03:47:20.613Z,71.25
2018-05-29T03:48:20.599Z,70.86
2018-05-29T03:49:20.591Z,70.61
2018-05-29T03:50:20.607Z,70.22
2018-05-29T03:51:20.670Z,70.22
2018-05-29T03:52:20.351Z,69.68
2018-05-29T03:53:20.586Z,68.81
2018-05-29T03:54:20.606Z,68.26
2018-05-29T03:55:20.333Z,67.78
2018-05-29T03:56:20.606Z,66.82
2018-05-29T03:57:20.584Z,66.33
2018-05-29T03:58:20.597Z,66.56
2018-05-29T03:59:20.585Z,65.98
2018-05-29T04:00:20.589Z,65.63
2018-05-29T04:01:20.588Z,64.98
2018-05-29T04:02:20.606Z,63.92
2018-05-29T04:03:20.589Z,62.85
2018-05-29T04:04:20.603Z,62.5
2018-05-29T04:05:20.609Z,62.98
2018-05-29T04:06:20.614Z,61.36
2018-05-29T04:07:20.592Z,60.98
2018-05-29T04:08:20.612Z,60.69
2018-05-29T04:09:20.661Z,60.91
2018-05-29T04:10:20.615Z,59.75
2018-05-29T04:11:20.346Z,59.1
2018-05-29T04:12:20.621Z,58.42
2018-05-29T04:13:20.619Z,57.97
2018-05-29T04:14:20.629Z,56.23
2018-05-29T04:15:20.615Z,56.54
2018-05-29T04:16:20.618Z,56.15
2018-05-29T04:17:20.615Z,55.67
2018-05-29T04:18:20.642Z,54.92
2018-05-29T04:19:20.385Z,55.11
2018-05-29T04:20:20.633Z,53.75
2018-05-29T04:21:20.632Z,54.27
2018-05-29T04:22:20.633Z,54.17
2018-05-29T04:23:20.659Z,53.13
2018-05-29T04:24:20.649Z,52.94
2018-05-29T04:25:20.675Z,52.25
2018-05-29T04:26:20.655Z,51.79
2018-05-29T04:27:20.677Z,51.79
2018-05-29T04:28:20.668Z,51.21
2018-05-29T04:29:20.666Z,51.04
2018-05-29T04:30:20.692Z,50.65
2018-05-29T04:31:20.678Z,50.26
2018-05-29T04:32:20.690Z,50.19
2018-05-29T04:33:20.690Z,49.99
2018-05-29T04:34:20.715Z,48.56
2018-05-29T04:35:20.720Z,47.98
2018-05-29T04:36:20.718Z,48.39
2018-05-29T04:37:20.712Z,47.8
2018-05-29T04:38:20.722Z,47.52
2018-05-29T04:39:20.784Z,47.32
2018-05-29T04:40:20.737Z,47.03
2018-05-29T04:41:20.757Z,46.66
2018-05-29T04:42:20.745Z,46.66
2018-05-29T04:43:20.818Z,46.76
2018-05-29T04:44:20.757Z,46.49
2018-05-29T04:45:22.054Z,45.32
2018-05-29T04:46:20.778Z,45.15
2018-05-29T04:47:20.798Z,44.85
2018-05-29T04:48:20.806Z,43.9
2018-05-29T04:49:20.800Z,43.41
2018-05-29T04:50:20.802Z,44.19
2018-05-29T04:51:20.810Z,43.71
2018-05-29T04:52:20.836Z,43.53
2018-05-29T04:53:20.830Z,43.33
2018-05-29T04:54:20.850Z,42.68
2018-05-29T04:55:20.861Z,41.89
2018-05-29T04:56:20.597Z,41.7
2018-05-29T04:57:20.879Z,41.52
2018-05-29T04:58:20.865Z,41.23
2018-05-29T04:59:20.895Z,41.44
2018-05-29T05:00:20.883Z,40.88
2018-05-29T05:01:20.898Z,40.7
2018-05-29T05:02:20.901Z,39.43
2018-05-29T05:03:20.931Z,39.43
2018-05-29T05:04:20.938Z,38.76
2018-05-29T05:05:20.933Z,38.96
2018-05-29T05:06:20.942Z,38.1
2018-05-29T05:07:20.947Z,38.1
2018-05-29T05:08:20.978Z,37.61
2018-05-29T05:09:20.719Z,37.71
2018-05-29T05:10:20.997Z,37.82
2018-05-29T05:11:20.734Z,37.73
2018-05-29T05:12:21.017Z,37.54
2018-05-29T05:13:21.006Z,37.35
2018-05-29T05:14:21.039Z,36.39
2018-05-29T05:15:21.031Z,36.66
2018-05-29T05:16:21.059Z,36.68
2018-05-29T05:17:21.064Z,36.29
2018-05-29T05:18:21.077Z,36.29
2018-05-29T05:19:20.815Z,36.39
2018-05-29T05:20:21.230Z,36.21
2018-05-29T05:21:21.097Z,35.13
2018-05-29T05:22:21.103Z,35.23
2018-05-29T05:23:21.113Z,35.33
2018-05-29T05:24:21.142Z,35.33
2018-05-29T05:25:21.139Z,35.23
2018-05-29T05:26:21.164Z,35.33
2018-05-29T05:27:21.198Z,35.42
2018-05-29T05:28:21.186Z,34.85
2018-05-29T05:29:21.176Z,35.05
2018-05-29T05:30:21.215Z,34.75
2018-05-29T05:31:20.947Z,34.46
2018-05-29T05:32:21.481Z,33.77
2018-05-29T05:33:21.234Z,33.87
2018-05-29T05:34:21.234Z,34.46
2018-05-29T05:35:21.332Z,34.66
2018-05-29T05:36:21.018Z,33.56
2018-05-29T05:37:21.275Z,34.34
2018-05-29T05:38:21.032Z,34.54
2018-05-29T05:39:21.043Z,34.81
2018-05-29T05:40:21.064Z,35.02
2018-05-29T05:41:21.323Z,35.31
2018-05-29T05:42:21.343Z,35.02
2018-05-29T05:43:21.338Z,34.72
2018-05-29T05:44:21.368Z,34.81
2018-05-29T05:45:21.368Z,34.9
2018-05-29T05:46:21.371Z,34.92
2018-05-29T05:47:21.404Z,34.62
2018-05-29T05:48:21.394Z,34.42
2018-05-29T05:49:21.161Z,34.23
2018-05-29T05:50:21.417Z,34.15
2018-05-29T05:51:21.451Z,34.64
2018-05-29T05:52:21.459Z,33.75
2018-05-29T05:53:21.457Z,33.08
2018-05-29T05:54:21.470Z,32.79
2018-05-29T05:55:21.483Z,33.18
2018-05-29T05:56:21.508Z,33.58
2018-05-29T05:57:21.505Z,33.18
2018-05-29T05:58:21.536Z,32.79
2018-05-29T05:59:21.271Z,32.69
2018-05-29T06:00:21.299Z,32.71
2018-05-29T06:01:21.558Z,32.21
2018-05-29T06:02:21.580Z,32.5
2018-05-29T06:03:21.570Z,32.3
2018-05-29T06:04:21.616Z,32.97
2018-05-29T06:05:21.619Z,33.07
2018-05-29T06:06:21.370Z,33.34
2018-05-29T06:07:21.620Z,33.74
2018-05-29T06:08:21.631Z,33.85
2018-05-29T06:09:21.659Z,33.56
2018-05-29T06:10:21.678Z,33.56
2018-05-29T06:11:21.669Z,33.26
2018-05-29T06:12:21.702Z,32.3
2018-05-29T06:13:21.702Z,32.4
2018-05-29T06:14:21.730Z,32.59
2018-05-29T06:15:21.722Z,31.12
2018-05-29T06:16:21.925Z,31.79
2018-05-29T06:17:21.742Z,31.6
2018-05-29T06:18:21.773Z,32.48
2018-05-29T06:19:21.788Z,32.09
2018-05-29T06:20:21.799Z,32.18
2018-05-29T06:21:21.808Z,32.48
2018-05-29T06:22:21.828Z,32.56
2018-05-29T06:23:21.566Z,32.17
2018-05-29T06:24:21.998Z,32.46
2018-05-29T06:25:21.858Z,32.56
2018-05-29T06:26:21.616Z,32.17
2018-05-29T06:27:21.893Z,32.37
2018-05-29T06:28:21.882Z,32.74
2018-05-29T06:29:21.918Z,33.04
2018-05-29T06:30:21.908Z,32.94
2018-05-29T06:31:21.937Z,32.54
2018-05-29T06:32:21.930Z,32.54
2018-05-29T06:33:21.962Z,33.04
2018-05-29T06:34:21.955Z,33.53
2018-05-29T06:35:21.984Z,32.66
2018-05-29T06:36:21.980Z,31.77
2018-05-29T06:37:22.009Z,31.48
2018-05-29T06:38:22.031Z,31.77
2018-05-29T06:39:21.765Z,31.87
2018-05-29T06:40:22.043Z,32.46
2018-05-29T06:41:22.060Z,31.77
2018-05-29T06:42:22.083Z,31.19
2018-05-29T06:43:22.097Z,30.9
2018-05-29T06:44:22.080Z,31.09
2018-05-29T06:45:22.112Z,31.48
2018-05-29T06:46:22.107Z,31.29
2018-05-29T06:47:22.139Z,31.58
2018-05-29T06:48:22.137Z,31.19
2018-05-29T06:49:22.172Z,31.29
2018-05-29T06:50:22.160Z,31.2
2018-05-29T06:51:22.190Z,31.3
2018-05-29T06:52:22.194Z,31.01
2018-05-29T06:53:22.208Z,31.1
2018-05-29T06:54:22.216Z,31.2
2018-05-29T06:55:22.241Z,30.52
2018-05-29T06:56:21.997Z,30.71
2018-05-29T06:57:22.006Z,30.42
2018-05-29T06:58:22.264Z,30.52
2018-05-29T06:59:22.296Z,30.42
2018-05-29T07:00:22.310Z,30.22
2018-05-29T07:01:22.306Z,30.4
2018-05-29T07:02:22.318Z,30.9
2018-05-29T07:03:22.347Z,30.78
2018-05-29T07:04:22.348Z,31.07
2018-05-29T07:05:22.374Z,30.39
2018-05-29T07:06:22.113Z,30.98
2018-05-29T07:07:22.411Z,30.78
2018-05-29T07:08:22.147Z,30.78
2018-05-29T07:09:22.421Z,30.49
2018-05-29T07:10:22.425Z,30.68
2018-05-29T07:11:22.454Z,30.98
2018-05-29T07:12:22.470Z,30.49
2018-05-29T07:13:22.464Z,29.9
2018-05-29T07:14:22.469Z,30
2018-05-29T07:15:22.500Z,29.31
2018-05-29T07:16:22.494Z,29.31
2018-05-29T07:17:22.529Z,29.5
2018-05-29T07:18:22.523Z,29.6
2018-05-29T07:19:22.575Z,29.11
2018-05-29T07:20:22.565Z,28.63
2018-05-29T07:21:22.580Z,29.31
2018-05-29T07:22:22.572Z,28.93
2018-05-29T07:23:22.349Z,29.13
2018-05-29T07:24:22.598Z,29.52
2018-05-29T07:25:22.623Z,28.75
2018-05-29T07:26:22.641Z,27.97
2018-05-29T07:27:22.828Z,27.67
2018-05-29T07:28:22.656Z,27.87
2018-05-29T07:29:22.421Z,27.69
2018-05-29T07:30:22.698Z,27.09
2018-05-29T07:31:22.712Z,27.39
2018-05-29T07:32:22.704Z,26.51
2018-05-29T07:33:22.485Z,27.11
2018-05-29T07:34:22.742Z,27.09
2018-05-29T07:35:22.771Z,26.8
2018-05-29T07:36:22.760Z,26.9
2018-05-29T07:37:22.539Z,26.9
2018-05-29T07:38:22.535Z,27.77
2018-05-29T07:39:22.829Z,26.89
2018-05-29T07:40:22.562Z,26.4
2018-05-29T07:41:22.581Z,26.2
2018-05-29T07:42:22.846Z,26.48
2018-05-29T07:43:22.903Z,26.76
2018-05-29T07:44:22.910Z,27.25
2018-05-29T07:45:22.933Z,26.96
2018-05-29T07:46:22.935Z,27.83
2018-05-29T07:47:22.922Z,27.73
2018-05-29T07:48:22.968Z,27.53
2018-05-29T07:49:22.957Z,27.92
2018-05-29T07:50:22.981Z,28.2
2018-05-29T07:51:22.973Z,27.12
2018-05-29T07:52:23.018Z,27.03
2018-05-29T07:53:22.996Z,27.72
2018-05-29T07:54:22.754Z,27.72
2018-05-29T07:55:23.049Z,27.91
2018-05-29T07:56:23.032Z,27.42
2018-05-29T07:57:23.482Z,27.91
2018-05-29T07:58:23.058Z,27.63
2018-05-29T07:59:23.091Z,26.75
2018-05-29T08:00:23.108Z,26.65
2018-05-29T08:01:23.102Z,26.75
2018-05-29T08:02:23.109Z,26.84
2018-05-29T08:03:22.871Z,25.96
2018-05-29T08:04:23.155Z,26.26
2018-05-29T08:05:23.157Z,26.35
2018-05-29T08:06:23.255Z,25.57
2018-05-29T08:07:23.177Z,25.95
2018-05-29T08:08:23.208Z,26.73
2018-05-29T08:09:23.202Z,26.05
2018-05-29T08:10:23.239Z,26.15
2018-05-29T08:11:23.229Z,26.34
2018-05-29T08:12:23.005Z,26.34
2018-05-29T08:13:23.281Z,27.01
2018-05-29T08:14:23.288Z,26.62
2018-05-29T08:15:23.283Z,27.01
2018-05-29T08:16:23.295Z,27.01
2018-05-29T08:17:23.322Z,27.11
2018-05-29T08:18:23.354Z,27.11
2018-05-29T08:19:23.345Z,27.11
2018-05-29T08:20:23.367Z,27.01
2018-05-29T08:21:23.366Z,26.54
2018-05-29T08:22:23.394Z,26.83
2018-05-29T08:23:23.388Z,26.73
2018-05-29T08:24:23.422Z,26.83
2018-05-29T08:25:23.159Z,25.85
2018-05-29T08:26:23.445Z,25.17
2018-05-29T08:27:23.448Z,24.97
2018-05-29T08:28:23.483Z,25.27
2018-05-29T08:29:23.485Z,25.66
2018-05-29T08:30:23.243Z,25.66
2018-05-29T08:31:23.242Z,25.27
2018-05-29T08:32:23.260Z,25.17
2018-05-29T08:33:23.545Z,25.16
2018-05-29T08:34:23.562Z,25.17
2018-05-29T08:35:23.566Z,24.68
2018-05-29T08:36:23.565Z,24.97
2018-05-29T08:37:23.594Z,25.35
2018-05-29T08:38:23.597Z,25.35
2018-05-29T08:39:23.401Z,25.16
2018-05-29T08:40:23.361Z,25.06
2018-05-29T08:41:23.654Z,25.45
2018-05-29T08:42:23.664Z,25.94
2018-05-29T08:43:23.694Z,25.65
2018-05-29T08:44:23.675Z,25.84
2018-05-29T08:45:23.702Z,25.55
2018-05-29T08:46:23.849Z,26.15
2018-05-29T08:47:23.721Z,26.54
2018-05-29T08:48:23.510Z,26.14
2018-05-29T08:49:23.757Z,25.95
2018-05-29T08:50:23.776Z,25.85
2018-05-29T08:51:23.783Z,25.95
2018-05-29T08:52:23.522Z,26.54
2018-05-29T08:53:23.817Z,26.23
2018-05-29T08:54:23.563Z,26.23
2018-05-29T08:55:23.581Z,26.92
2018-05-29T08:56:23.827Z,27.01
2018-05-29T08:57:23.891Z,27.49
2018-05-29T08:58:23.597Z,27.69
2018-05-29T08:59:23.883Z,28.16
2018-05-29T09:00:23.873Z,28.36
2018-05-29T09:01:23.904Z,29.14
2018-05-29T09:02:23.900Z,29.32
2018-05-29T09:03:23.670Z,29.32
2018-05-29T09:04:24.089Z,29.22
2018-05-29T09:05:23.935Z,29.21
2018-05-29T09:06:23.932Z,30.09
2018-05-29T09:07:23.941Z,30.27
2018-05-29T09:08:23.969Z,30.96
2018-05-29T09:09:23.967Z,31.43
2018-05-29T09:10:24.245Z,31.52
2018-05-29T09:11:24.030Z,31.8
2018-05-29T09:12:23.985Z,32.19
2018-05-29T09:13:24.014Z,31.7
2018-05-29T09:14:24.002Z,32.28
2018-05-29T09:15:24.028Z,32.37
2018-05-29T09:16:24.018Z,32.37
2018-05-29T09:17:24.027Z,32.84
2018-05-29T09:18:24.026Z,32.45
2018-05-29T09:19:24.066Z,32.75
2018-05-29T09:20:23.801Z,33.02
2018-05-29T09:21:24.067Z,33.02
2018-05-29T09:22:24.070Z,33.31
2018-05-29T09:23:24.058Z,33.12
2018-05-29T09:24:24.101Z,33.41
2018-05-29T09:25:24.130Z,33.41
2018-05-29T09:26:24.093Z,34.27
2018-05-29T09:27:24.080Z,34.56
2018-05-29T09:28:24.103Z,33.98
2018-05-29T09:29:24.094Z,33.59
2018-05-29T09:30:24.114Z,33.11
2018-05-29T09:31:23.846Z,33.01
2018-05-29T09:32:24.137Z,33.39
2018-05-29T09:33:24.125Z,34.27
2018-05-29T09:34:24.149Z,34.17
2018-05-29T09:35:24.162Z,34.47
2018-05-29T09:36:24.146Z,34.08
2018-05-29T09:37:24.154Z,33.69
2018-05-29T09:38:24.132Z,32.81
2018-05-29T09:39:24.137Z,33.59
2018-05-29T09:40:24.324Z,33.49
2018-05-29T09:41:24.432Z,33.39
2018-05-29T09:42:24.174Z,33.11
2018-05-29T09:43:24.175Z,33.29
2018-05-29T09:44:24.183Z,33.49
2018-05-29T09:45:24.194Z,34.56
2018-05-29T09:46:24.194Z,34.08
2018-05-29T09:47:24.180Z,33.59
2018-05-29T09:48:23.965Z,33.11
2018-05-29T09:49:24.227Z,33.39
2018-05-29T09:50:24.236Z,33.11
2018-05-29T09:51:24.192Z,33.29
2018-05-29T09:52:24.195Z,34.47
2018-05-29T09:53:24.219Z,34.58
2018-05-29T09:54:24.239Z,34.09
2018-05-29T09:55:24.227Z,33.7
2018-05-29T09:56:24.214Z,33.41
2018-05-29T09:57:24.261Z,33.22
2018-05-29T09:58:24.241Z,32.63
2018-05-29T09:59:24.247Z,33.22
2018-05-29T10:00:23.981Z,32.53
2018-05-29T10:01:23.995Z,32.94
2018-05-29T10:02:24.280Z,31.95
2018-05-29T10:03:24.257Z,32.45
2018-05-29T10:04:24.269Z,32.16
2018-05-29T10:05:24.272Z,32.63
2018-05-29T10:06:24.286Z,32.53
2018-05-29T10:07:24.011Z,32.84
2018-05-29T10:08:24.270Z,33.04
2018-05-29T10:09:24.333Z,33.14
2018-05-29T10:10:24.038Z,32.84
2018-05-29T10:11:24.044Z,31.77
2018-05-29T10:12:24.541Z,31.48
2018-05-29T10:13:24.304Z,32.06
2018-05-29T10:14:24.297Z,32.75
2018-05-29T10:15:24.321Z,32.94
2018-05-29T10:16:24.308Z,32.26
2018-05-29T10:17:24.075Z,32.55
2018-05-29T10:18:24.328Z,33.06
2018-05-29T10:19:24.383Z,32.18
2018-05-29T10:20:24.334Z,32.37
2018-05-29T10:21:24.332Z,32.08
2018-05-29T10:22:24.079Z,31.69
2018-05-29T10:23:24.434Z,31.79
2018-05-29T10:24:24.379Z,31.59
2018-05-29T10:25:24.113Z,32.37
2018-05-29T10:26:24.352Z,31.79
2018-05-29T10:27:24.377Z,32.47
2018-05-29T10:28:24.360Z,32.28
2018-05-29T10:29:24.395Z,32.37
2018-05-29T10:30:24.382Z,32.08
2018-05-29T10:31:24.137Z,32.18
2018-05-29T10:32:24.381Z,32.18
2018-05-29T10:33:24.410Z,32.47
2018-05-29T10:34:24.393Z,32.57
2018-05-29T10:35:24.159Z,33.15
2018-05-29T10:36:24.416Z,32.76
2018-05-29T10:37:24.435Z,32.67
2018-05-29T10:38:24.175Z,32.47
2018-05-29T10:39:24.431Z,32.48
2018-05-29T10:40:24.427Z,32.39
2018-05-29T10:41:24.440Z,32.58
2018-05-29T10:42:24.454Z,32.58
2018-05-29T10:43:24.704Z,31.7
2018-05-29T10:44:24.193Z,31.12
2018-05-29T10:45:24.463Z,31.99
2018-05-29T10:46:24.458Z,31.99
2018-05-29T10:47:24.479Z,32.68
2018-05-29T10:48:24.206Z,32.87
2018-05-29T10:49:24.486Z,32.79
2018-05-29T10:50:24.470Z,32.48
2018-05-29T10:51:24.500Z,32.97
2018-05-29T10:52:24.493Z,32.78
2018-05-29T10:53:24.500Z,33.07
2018-05-29T10:54:24.511Z,33.07
2018-05-29T10:55:24.502Z,33.17
2018-05-29T10:56:24.499Z,32.7
2018-05-29T10:57:24.525Z,32.39
2018-05-29T10:58:24.537Z,32.4
2018-05-29T10:59:24.535Z,32.89
2018-05-29T11:00:24.530Z,32.87
2018-05-29T11:01:24.540Z,33.67
2018-05-29T11:02:24.563Z,33.48
2018-05-29T11:03:24.305Z,34.16
2018-05-29T11:04:24.559Z,34.84
2018-05-29T11:05:24.567Z,34.84
2018-05-29T11:06:24.554Z,34.75
2018-05-29T11:07:24.324Z,34.84
2018-05-29T11:08:24.564Z,34.45
2018-05-29T11:09:24.579Z,33.18
2018-05-29T11:10:24.575Z,32.6
2018-05-29T11:11:24.598Z,32.7
2018-05-29T11:12:24.347Z,32.5
2018-05-29T11:13:24.608Z,32.5
2018-05-29T11:14:24.680Z,32.99
2018-05-29T11:15:24.605Z,32.11
2018-05-29T11:16:24.630Z,32.7
2018-05-29T11:17:24.635Z,33.58
2018-05-29T11:18:24.623Z,33.67
2018-05-29T11:19:24.648Z,33.97
2018-05-29T11:20:24.625Z,34.55
2018-05-29T11:21:24.652Z,34.94
2018-05-29T11:22:24.645Z,35.14
2018-05-29T11:23:24.407Z,34.84
2018-05-29T11:24:24.650Z,34.84
2018-05-29T11:25:24.659Z,33.5
2018-05-29T11:26:24.657Z,33.5
2018-05-29T11:27:24.691Z,34.38
2018-05-29T11:28:24.697Z,34.08
2018-05-29T11:29:24.677Z,34.86
2018-05-29T11:30:24.679Z,34.57
2018-05-29T11:31:24.690Z,34.86
2018-05-29T11:32:24.709Z,35.06
2018-05-29T11:33:24.701Z,35.06
2018-05-29T11:34:24.722Z,33.89
2018-05-29T11:35:24.709Z,33.01
2018-05-29T11:36:24.731Z,33.69
2018-05-29T11:37:24.716Z,33.89
2018-05-29T11:38:24.744Z,34.57
2018-05-29T11:39:24.743Z,34.47
2018-05-29T11:40:24.750Z,34.38
2018-05-29T11:41:24.771Z,34.96
2018-05-29T11:42:25.079Z,34.67
2018-05-29T11:43:24.754Z,35.25
2018-05-29T11:44:24.776Z,35.55
2018-05-29T11:45:24.774Z,35.64
2018-05-29T11:46:24.521Z,36.72
2018-05-29T11:47:24.517Z,36.82
2018-05-29T11:48:24.797Z,36.13
2018-05-29T11:49:24.786Z,37.11
2018-05-29T11:50:24.811Z,37.6
2018-05-29T11:51:24.791Z,37.7
2018-05-29T11:52:24.817Z,37.99
2018-05-29T11:53:24.809Z,38.28
2018-05-29T11:54:24.828Z,37.21
2018-05-29T11:55:24.831Z,37.6
2018-05-29T11:56:24.856Z,37.79
2018-05-29T11:57:24.840Z,37.6
2018-05-29T11:58:24.852Z,37.3
2018-05-29T11:59:24.838Z,36.62
2018-05-29T12:00:24.845Z,34.96
2018-05-29T12:01:24.864Z,34.86
2018-05-29T12:02:24.876Z,34.57
2018-05-29T12:03:24.631Z,34.08
2018-05-29T12:04:24.872Z,34.08
2018-05-29T12:05:24.885Z,33.4
2018-05-29T12:06:24.874Z,33.79
2018-05-29T12:07:24.905Z,34.67
2018-05-29T12:08:24.896Z,34.47
2018-05-29T12:09:24.906Z,34.18
2018-05-29T12:10:24.916Z,33.69
2018-05-29T12:11:24.904Z,33.69
2018-05-29T12:12:24.932Z,33.02
2018-05-29T12:13:24.925Z,32.52
2018-05-29T12:14:24.935Z,32.52
2018-05-29T12:15:24.959Z,32.81
2018-05-29T12:16:25.009Z,32.32
2018-05-29T12:17:24.964Z,32.34
2018-05-29T12:18:24.739Z,32.34
2018-05-29T12:19:24.996Z,32.62
2018-05-29T12:20:24.982Z,32.81
2018-05-29T12:21:24.738Z,32.82
2018-05-29T12:22:25.081Z,32.81
2018-05-29T12:23:24.713Z,31.84
2018-05-29T12:24:24.991Z,31.56
2018-05-29T12:25:24.981Z,31.56
2018-05-29T12:26:25.006Z,31.85
2018-05-29T12:27:24.736Z,31.26
2018-05-29T12:28:25.017Z,31.75
2018-05-29T12:29:25.019Z,31.16
2018-05-29T12:30:25.036Z,30.97
2018-05-29T12:31:25.010Z,31.07
2018-05-29T12:32:25.041Z,31.16
2018-05-29T12:33:24.778Z,31.16
2018-05-29T12:34:24.816Z,31.75
2018-05-29T12:35:25.039Z,31.16
2018-05-29T12:36:25.062Z,31.75
2018-05-29T12:37:25.051Z,31.16
2018-05-29T12:38:25.068Z,30.77
2018-05-29T12:39:24.803Z,31.16
2018-05-29T12:40:25.222Z,31.16
2018-05-29T12:41:25.071Z,31.28
2018-05-29T12:42:25.088Z,31.77
2018-05-29T12:43:25.077Z,30.88
2018-05-29T12:44:25.100Z,30.49
2018-05-29T12:45:24.845Z,30.49
2018-05-29T12:46:25.383Z,30.49
2018-05-29T12:47:25.100Z,30.3
2018-05-29T12:48:25.114Z,30.2
2018-05-29T12:49:25.231Z,29.91
2018-05-29T12:50:24.878Z,30
2018-05-29T12:51:25.144Z,30.3
2018-05-29T12:52:25.135Z,30.49
2018-05-29T12:53:25.226Z,29.9
2018-05-29T12:54:25.148Z,30.2
2018-05-29T12:55:25.162Z,30
2018-05-29T12:56:25.154Z,30
2018-05-29T12:57:25.188Z,30.1